Terminal Aerodrome Forecast
Issued by NWS

Home | Current Version | Previous Version | Text Only | Print | Product List | Glossary On
Versions: 1 2 3 4 5 6 7 8 9 10 11 12 13 14 15 16
000
FTUS41 KPHI 280500
TAFMIV
TAF
KMIV 280533Z 2806/2906 28004KT P6SM SCT250
     FM280700 33006KT P6SM SCT045
     FM281300 31008G16KT P6SM SKC
     FM282300 32006KT P6SM SKC
     FM290400 VRB03KT P6SM SCT250=

USA.gov is the U.S. government's official web portal to all federal, state and local government web resources and services.